sensor_id;sensor_type;location;lat;lon;timestamp;P1;durP1;ratioP1;P2;durP2;ratioP2
4766;SDS011;2397;53.576;9.746;2022-11-20T00:01:21;4.00;;;3.70;;
4766;SDS011;2397;53.576;9.746;2022-11-20T00:03:51;4.10;;;3.70;;
4766;SDS011;2397;53.576;9.746;2022-11-20T00:06:19;4.30;;;3.90;;
4766;SDS011;2397;53.576;9.746;2022-11-20T00:08:46;4.40;;;4.03;;
4766;SDS011;2397;53.576;9.746;2022-11-20T00:11:14;8.13;;;3.80;;
4766;SDS011;2397;53.576;9.746;2022-11-20T00:13:46;4.07;;;3.67;;
4766;SDS011;2397;53.576;9.746;2022-11-20T00:16:15;9.53;;;3.57;;
4766;SDS011;2397;53.576;9.746;2022-11-20T00:18:43;6.73;;;4.63;;
4766;SDS011;2397;53.576;9.746;2022-11-20T00:21:15;4.10;;;3.80;;
4766;SDS011;2397;53.576;9.746;2022-11-20T00:23:43;6.00;;;4.23;;
4766;SDS011;2397;53.576;9.746;2022-11-20T00:26:11;3.90;;;3.33;;
4766;SDS011;2397;53.576;9.746;2022-11-20T00:28:39;5.00;;;4.50;;
4766;SDS011;2397;53.576;9.746;2022-11-20T00:31:10;4.03;;;3.70;;
4766;SDS011;2397;53.576;9.746;2022-11-20T00:33:39;3.97;;;3.57;;
4766;SDS011;2397;53.576;9.746;2022-11-20T00:36:06;4.23;;;3.23;;
4766;SDS011;2397;53.576;9.746;2022-11-20T00:38:35;4.07;;;3.67;;
4766;SDS011;2397;53.576;9.746;2022-11-20T00:41:02;4.63;;;4.13;;
4766;SDS011;2397;53.576;9.746;2022-11-20T00:43:31;4.40;;;4.00;;
4766;SDS011;2397;53.576;9.746;2022-11-20T00:48:24;7.77;;;4.60;;
4766;SDS011;2397;53.576;9.746;2022-11-20T00:50:51;6.67;;;3.83;;
4766;SDS011;2397;53.576;9.746;2022-11-20T00:53:18;5.40;;;4.17;;
4766;SDS011;2397;53.576;9.746;2022-11-20T00:55:54;4.10;;;3.70;;
4766;SDS011;2397;53.576;9.746;2022-11-20T00:58:21;5.57;;;3.87;;
4766;SDS011;2397;53.576;9.746;2022-11-20T01:00:49;10.67;;;3.90;;
4766;SDS011;2397;53.576;9.746;2022-11-20T01:03:16;5.37;;;3.90;;
4766;SDS011;2397;53.576;9.746;2022-11-20T01:05:49;7.47;;;4.30;;
4766;SDS011;2397;53.576;9.746;2022-11-20T01:08:15;4.83;;;4.33;;
4766;SDS011;2397;53.576;9.746;2022-11-20T01:10:42;5.87;;;5.20;;
4766;SDS011;2397;53.576;9.746;2022-11-20T01:13:08;7.90;;;5.03;;
4766;SDS011;2397;53.576;9.746;2022-11-20T01:15:53;4.67;;;4.27;;
4766;SDS011;2397;53.576;9.746;2022-11-20T01:18:20;5.80;;;3.90;;
4766;SDS011;2397;53.576;9.746;2022-11-20T01:20:46;5.93;;;4.00;;
4766;SDS011;2397;53.576;9.746;2022-11-20T01:23:13;7.40;;;3.63;;
4766;SDS011;2397;53.576;9.746;2022-11-20T01:25:39;4.37;;;3.97;;
4766;SDS011;2397;53.576;9.746;2022-11-20T01:28:06;5.33;;;4.10;;
4766;SDS011;2397;53.576;9.746;2022-11-20T01:30:32;4.30;;;3.90;;
4766;SDS011;2397;53.576;9.746;2022-11-20T01:32:58;7.43;;;4.20;;
4766;SDS011;2397;53.576;9.746;2022-11-20T01:35:25;6.43;;;4.10;;
4766;SDS011;2397;53.576;9.746;2022-11-20T01:37:51;6.90;;;6.20;;
4766;SDS011;2397;53.576;9.746;2022-11-20T01:40:17;4.13;;;3.73;;
4766;SDS011;2397;53.576;9.746;2022-11-20T01:42:46;6.20;;;4.80;;
4766;SDS011;2397;53.576;9.746;2022-11-20T01:45:52;6.90;;;4.67;;
4766;SDS011;2397;53.576;9.746;2022-11-20T01:48:24;10.90;;;4.90;;
4766;SDS011;2397;53.576;9.746;2022-11-20T01:50:55;7.37;;;4.27;;
4766;SDS011;2397;53.576;9.746;2022-11-20T01:53:25;6.63;;;4.17;;
4766;SDS011;2397;53.576;9.746;2022-11-20T01:55:56;5.07;;;4.57;;
4766;SDS011;2397;53.576;9.746;2022-11-20T01:58:27;5.00;;;4.50;;
4766;SDS011;2397;53.576;9.746;2022-11-20T02:00:58;5.10;;;4.33;;
4766;SDS011;2397;53.576;9.746;2022-11-20T02:03:24;6.53;;;4.93;;
4766;SDS011;2397;53.576;9.746;2022-11-20T02:08:33;4.93;;;4.13;;
4766;SDS011;2397;53.576;9.746;2022-11-20T02:11:01;4.77;;;4.27;;
4766;SDS011;2397;53.576;9.746;2022-11-20T02:13:27;4.20;;;3.80;;
4766;SDS011;2397;53.576;9.746;2022-11-20T02:16:23;4.40;;;3.70;;
4766;SDS011;2397;53.576;9.746;2022-11-20T02:18:52;4.97;;;4.17;;
4766;SDS011;2397;53.576;9.746;2022-11-20T02:21:25;6.67;;;4.90;;
4766;SDS011;2397;53.576;9.746;2022-11-20T02:24:04;4.50;;;3.70;;
4766;SDS011;2397;53.576;9.746;2022-11-20T02:26:35;4.10;;;3.80;;
4766;SDS011;2397;53.576;9.746;2022-11-20T02:29:07;4.23;;;3.83;;
4766;SDS011;2397;53.576;9.746;2022-11-20T02:31:35;4.87;;;4.37;;
4766;SDS011;2397;53.576;9.746;2022-11-20T02:34:02;4.77;;;3.87;;
4766;SDS011;2397;53.576;9.746;2022-11-20T02:36:29;4.27;;;3.83;;
4766;SDS011;2397;53.576;9.746;2022-11-20T02:38:58;4.43;;;3.97;;
4766;SDS011;2397;53.576;9.746;2022-11-20T02:41:35;4.13;;;3.67;;
4766;SDS011;2397;53.576;9.746;2022-11-20T02:44:03;4.67;;;3.70;;
4766;SDS011;2397;53.576;9.746;2022-11-20T02:46:30;4.07;;;3.67;;
4766;SDS011;2397;53.576;9.746;2022-11-20T02:48:57;4.10;;;3.77;;
4766;SDS011;2397;53.576;9.746;2022-11-20T02:51:23;4.33;;;3.90;;
4766;SDS011;2397;53.576;9.746;2022-11-20T02:53:50;8.30;;;4.53;;
4766;SDS011;2397;53.576;9.746;2022-11-20T02:56:17;5.17;;;3.90;;
4766;SDS011;2397;53.576;9.746;2022-11-20T02:58:43;4.90;;;4.40;;
4766;SDS011;2397;53.576;9.746;2022-11-20T03:01:09;9.57;;;5.40;;
4766;SDS011;2397;53.576;9.746;2022-11-20T03:03:36;5.90;;;4.27;;
4766;SDS011;2397;53.576;9.746;2022-11-20T03:06:02;5.20;;;3.90;;
4766;SDS011;2397;53.576;9.746;2022-11-20T03:08:29;6.40;;;4.10;;
4766;SDS011;2397;53.576;9.746;2022-11-20T03:10:55;4.73;;;3.73;;
4766;SDS011;2397;53.576;9.746;2022-11-20T03:13:22;10.80;;;6.27;;
4766;SDS011;2397;53.576;9.746;2022-11-20T03:15:48;8.20;;;5.37;;
4766;SDS011;2397;53.576;9.746;2022-11-20T03:18:14;9.00;;;5.20;;
4766;SDS011;2397;53.576;9.746;2022-11-20T03:20:41;8.10;;;5.80;;
4766;SDS011;2397;53.576;9.746;2022-11-20T03:23:07;10.07;;;5.60;;
4766;SDS011;2397;53.576;9.746;2022-11-20T03:25:34;6.63;;;4.70;;
4766;SDS011;2397;53.576;9.746;2022-11-20T03:28:01;7.00;;;4.30;;
4766;SDS011;2397;53.576;9.746;2022-11-20T03:30:28;8.00;;;5.00;;
4766;SDS011;2397;53.576;9.746;2022-11-20T03:32:56;10.83;;;4.97;;
4766;SDS011;2397;53.576;9.746;2022-11-20T03:35:22;5.70;;;4.17;;
4766;SDS011;2397;53.576;9.746;2022-11-20T03:37:49;4.20;;;3.80;;
4766;SDS011;2397;53.576;9.746;2022-11-20T03:40:15;4.63;;;3.47;;
4766;SDS011;2397;53.576;9.746;2022-11-20T03:42:42;7.67;;;3.53;;
4766;SDS011;2397;53.576;9.746;2022-11-20T03:45:12;4.50;;;3.40;;
4766;SDS011;2397;53.576;9.746;2022-11-20T03:47:39;3.93;;;3.27;;
4766;SDS011;2397;53.576;9.746;2022-11-20T03:50:06;4.90;;;3.80;;
4766;SDS011;2397;53.576;9.746;2022-11-20T03:52:32;4.30;;;3.90;;
4766;SDS011;2397;53.576;9.746;2022-11-20T03:54:59;3.90;;;3.53;;
4766;SDS011;2397;53.576;9.746;2022-11-20T03:57:25;4.17;;;3.77;;
4766;SDS011;2397;53.576;9.746;2022-11-20T03:59:52;5.90;;;3.70;;
4766;SDS011;2397;53.576;9.746;2022-11-20T04:02:18;9.07;;;4.07;;
4766;SDS011;2397;53.576;9.746;2022-11-20T04:04:45;4.33;;;3.90;;
4766;SDS011;2397;53.576;9.746;2022-11-20T04:07:11;4.20;;;3.73;;
4766;SDS011;2397;53.576;9.746;2022-11-20T04:09:37;3.43;;;3.20;;
4766;SDS011;2397;53.576;9.746;2022-11-20T04:12:04;4.20;;;3.60;;
4766;SDS011;2397;53.576;9.746;2022-11-20T04:14:30;4.50;;;4.10;;
4766;SDS011;2397;53.576;9.746;2022-11-20T04:16:57;5.03;;;3.37;;
4766;SDS011;2397;53.576;9.746;2022-11-20T04:19:23;6.03;;;3.43;;
4766;SDS011;2397;53.576;9.746;2022-11-20T04:21:50;4.47;;;3.93;;
4766;SDS011;2397;53.576;9.746;2022-11-20T04:24:16;6.83;;;3.80;;
4766;SDS011;2397;53.576;9.746;2022-11-20T04:26:43;4.00;;;3.60;;
4766;SDS011;2397;53.576;9.746;2022-11-20T04:29:10;4.37;;;3.60;;
4766;SDS011;2397;53.576;9.746;2022-11-20T04:31:37;5.60;;;4.43;;
4766;SDS011;2397;53.576;9.746;2022-11-20T04:34:04;4.40;;;3.97;;
4766;SDS011;2397;53.576;9.746;2022-11-20T04:36:32;4.93;;;3.57;;
4766;SDS011;2397;53.576;9.746;2022-11-20T04:39:00;4.17;;;3.60;;
4766;SDS011;2397;53.576;9.746;2022-11-20T04:41:30;3.87;;;3.57;;
4766;SDS011;2397;53.576;9.746;2022-11-20T04:43:59;3.70;;;3.40;;
4766;SDS011;2397;53.576;9.746;2022-11-20T04:46:30;3.50;;;3.20;;
4766;SDS011;2397;53.576;9.746;2022-11-20T04:48:59;4.20;;;3.80;;
4766;SDS011;2397;53.576;9.746;2022-11-20T04:51:25;4.13;;;3.73;;
4766;SDS011;2397;53.576;9.746;2022-11-20T04:53:53;7.53;;;4.47;;
4766;SDS011;2397;53.576;9.746;2022-11-20T04:56:19;5.00;;;4.50;;
4766;SDS011;2397;53.576;9.746;2022-11-20T04:58:45;3.80;;;3.50;;
4766;SDS011;2397;53.576;9.746;2022-11-20T05:01:16;5.23;;;3.73;;
4766;SDS011;2397;53.576;9.746;2022-11-20T05:03:44;3.87;;;3.50;;
4766;SDS011;2397;53.576;9.746;2022-11-20T05:06:12;5.00;;;3.90;;
4766;SDS011;2397;53.576;9.746;2022-11-20T05:08:40;5.73;;;4.07;;
4766;SDS011;2397;53.576;9.746;2022-11-20T05:11:10;6.83;;;3.70;;
4766;SDS011;2397;53.576;9.746;2022-11-20T05:13:39;6.23;;;3.87;;
4766;SDS011;2397;53.576;9.746;2022-11-20T05:16:10;10.40;;;4.27;;
4766;SDS011;2397;53.576;9.746;2022-11-20T05:18:39;5.00;;;3.60;;
4766;SDS011;2397;53.576;9.746;2022-11-20T05:21:07;5.77;;;4.10;;
4766;SDS011;2397;53.576;9.746;2022-11-20T05:23:35;5.10;;;3.50;;
4766;SDS011;2397;53.576;9.746;2022-11-20T05:26:02;4.03;;;3.70;;
4766;SDS011;2397;53.576;9.746;2022-11-20T05:28:29;4.30;;;3.90;;
4766;SDS011;2397;53.576;9.746;2022-11-20T05:31:03;5.00;;;4.13;;
4766;SDS011;2397;53.576;9.746;2022-11-20T05:33:30;4.23;;;3.70;;
4766;SDS011;2397;53.576;9.746;2022-11-20T05:35:59;4.50;;;3.50;;
4766;SDS011;2397;53.576;9.746;2022-11-20T05:38:26;4.10;;;3.70;;
4766;SDS011;2397;53.576;9.746;2022-11-20T05:40:53;3.50;;;3.20;;
4766;SDS011;2397;53.576;9.746;2022-11-20T05:43:19;5.10;;;4.00;;
4766;SDS011;2397;53.576;9.746;2022-11-20T05:45:54;6.40;;;3.50;;
4766;SDS011;2397;53.576;9.746;2022-11-20T05:48:21;6.47;;;3.77;;
4766;SDS011;2397;53.576;9.746;2022-11-20T05:50:47;4.33;;;3.93;;
4766;SDS011;2397;53.576;9.746;2022-11-20T05:53:14;3.53;;;3.10;;
4766;SDS011;2397;53.576;9.746;2022-11-20T05:55:40;4.00;;;3.70;;
4766;SDS011;2397;53.576;9.746;2022-11-20T05:58:07;4.40;;;4.00;;
4766;SDS011;2397;53.576;9.746;2022-11-20T06:00:33;3.90;;;3.60;;
4766;SDS011;2397;53.576;9.746;2022-11-20T06:02:59;6.90;;;4.40;;
4766;SDS011;2397;53.576;9.746;2022-11-20T06:05:26;3.80;;;3.50;;
4766;SDS011;2397;53.576;9.746;2022-11-20T06:07:52;5.60;;;3.90;;
4766;SDS011;2397;53.576;9.746;2022-11-20T06:10:19;4.60;;;4.20;;
4766;SDS011;2397;53.576;9.746;2022-11-20T06:12:45;7.63;;;3.83;;
4766;SDS011;2397;53.576;9.746;2022-11-20T06:15:12;5.53;;;3.60;;
4766;SDS011;2397;53.576;9.746;2022-11-20T06:17:38;4.47;;;3.83;;
4766;SDS011;2397;53.576;9.746;2022-11-20T06:20:05;4.43;;;4.07;;
4766;SDS011;2397;53.576;9.746;2022-11-20T06:22:31;4.20;;;3.80;;
4766;SDS011;2397;53.576;9.746;2022-11-20T06:24:58;5.50;;;4.60;;
4766;SDS011;2397;53.576;9.746;2022-11-20T06:27:24;5.40;;;4.53;;
4766;SDS011;2397;53.576;9.746;2022-11-20T06:29:51;4.27;;;3.50;;
4766;SDS011;2397;53.576;9.746;2022-11-20T06:32:17;5.23;;;3.70;;
4766;SDS011;2397;53.576;9.746;2022-11-20T06:34:44;5.27;;;3.83;;
4766;SDS011;2397;53.576;9.746;2022-11-20T06:37:10;4.53;;;4.13;;
4766;SDS011;2397;53.576;9.746;2022-11-20T06:39:36;4.83;;;4.33;;
4766;SDS011;2397;53.576;9.746;2022-11-20T06:42:03;5.23;;;3.73;;
4766;SDS011;2397;53.576;9.746;2022-11-20T06:44:29;6.40;;;3.70;;
4766;SDS011;2397;53.576;9.746;2022-11-20T06:46:55;5.40;;;3.60;;
4766;SDS011;2397;53.576;9.746;2022-11-20T06:49:22;5.27;;;3.90;;
4766;SDS011;2397;53.576;9.746;2022-11-20T06:51:49;4.87;;;4.17;;
4766;SDS011;2397;53.576;9.746;2022-11-20T06:54:15;6.30;;;4.90;;
4766;SDS011;2397;53.576;9.746;2022-11-20T06:56:42;6.47;;;4.70;;
4766;SDS011;2397;53.576;9.746;2022-11-20T06:59:12;4.97;;;3.67;;
4766;SDS011;2397;53.576;9.746;2022-11-20T07:01:38;6.70;;;4.27;;
4766;SDS011;2397;53.576;9.746;2022-11-20T07:04:05;4.60;;;4.20;;
4766;SDS011;2397;53.576;9.746;2022-11-20T07:06:31;4.37;;;3.73;;
4766;SDS011;2397;53.576;9.746;2022-11-20T07:08:58;7.47;;;4.53;;
4766;SDS011;2397;53.576;9.746;2022-11-20T07:11:24;4.17;;;3.60;;
4766;SDS011;2397;53.576;9.746;2022-11-20T07:13:50;4.80;;;4.33;;
4766;SDS011;2397;53.576;9.746;2022-11-20T07:16:17;5.47;;;4.30;;
4766;SDS011;2397;53.576;9.746;2022-11-20T07:18:44;4.80;;;3.90;;
4766;SDS011;2397;53.576;9.746;2022-11-20T07:21:16;4.70;;;4.03;;
4766;SDS011;2397;53.576;9.746;2022-11-20T07:23:42;4.73;;;4.33;;
4766;SDS011;2397;53.576;9.746;2022-11-20T07:26:09;4.10;;;3.80;;
4766;SDS011;2397;53.576;9.746;2022-11-20T07:28:37;5.60;;;3.93;;
4766;SDS011;2397;53.576;9.746;2022-11-20T07:31:04;8.57;;;4.57;;
4766;SDS011;2397;53.576;9.746;2022-11-20T07:33:33;4.30;;;3.73;;
4766;SDS011;2397;53.576;9.746;2022-11-20T07:35:59;3.90;;;3.57;;
4766;SDS011;2397;53.576;9.746;2022-11-20T07:38:35;4.97;;;4.57;;
4766;SDS011;2397;53.576;9.746;2022-11-20T07:41:02;6.67;;;4.00;;
4766;SDS011;2397;53.576;9.746;2022-11-20T07:43:29;4.17;;;3.77;;
4766;SDS011;2397;53.576;9.746;2022-11-20T07:45:56;5.40;;;4.90;;
4766;SDS011;2397;53.576;9.746;2022-11-20T07:48:24;4.50;;;4.10;;
4766;SDS011;2397;53.576;9.746;2022-11-20T07:50:53;4.77;;;4.33;;
4766;SDS011;2397;53.576;9.746;2022-11-20T07:53:20;4.20;;;3.80;;
4766;SDS011;2397;53.576;9.746;2022-11-20T07:55:47;7.60;;;4.50;;
4766;SDS011;2397;53.576;9.746;2022-11-20T07:58:14;5.00;;;4.40;;
4766;SDS011;2397;53.576;9.746;2022-11-20T08:00:40;5.17;;;4.20;;
4766;SDS011;2397;53.576;9.746;2022-11-20T08:03:07;4.70;;;4.20;;
4766;SDS011;2397;53.576;9.746;2022-11-20T08:05:33;5.30;;;3.70;;
4766;SDS011;2397;53.576;9.746;2022-11-20T08:08:00;4.43;;;4.03;;
4766;SDS011;2397;53.576;9.746;2022-11-20T08:10:26;5.10;;;3.90;;
4766;SDS011;2397;53.576;9.746;2022-11-20T08:12:53;5.83;;;3.80;;
4766;SDS011;2397;53.576;9.746;2022-11-20T08:15:38;4.97;;;4.00;;
4766;SDS011;2397;53.576;9.746;2022-11-20T08:18:10;4.10;;;3.80;;
4766;SDS011;2397;53.576;9.746;2022-11-20T08:20:57;3.77;;;3.47;;
4766;SDS011;2397;53.576;9.746;2022-11-20T08:23:27;5.07;;;3.97;;
4766;SDS011;2397;53.576;9.746;2022-11-20T08:25:54;5.80;;;3.80;;
4766;SDS011;2397;53.576;9.746;2022-11-20T08:28:20;4.10;;;3.77;;
4766;SDS011;2397;53.576;9.746;2022-11-20T08:30:48;5.03;;;3.50;;
4766;SDS011;2397;53.576;9.746;2022-11-20T08:33:16;4.00;;;3.60;;
4766;SDS011;2397;53.576;9.746;2022-11-20T08:35:43;4.00;;;3.70;;
4766;SDS011;2397;53.576;9.746;2022-11-20T08:38:09;4.23;;;3.47;;
4766;SDS011;2397;53.576;9.746;2022-11-20T08:40:36;4.07;;;3.77;;
4766;SDS011;2397;53.576;9.746;2022-11-20T08:43:02;4.50;;;4.07;;
4766;SDS011;2397;53.576;9.746;2022-11-20T08:45:29;6.57;;;4.03;;
4766;SDS011;2397;53.576;9.746;2022-11-20T08:48:00;6.33;;;4.20;;
4766;SDS011;2397;53.576;9.746;2022-11-20T08:50:30;4.83;;;4.33;;
4766;SDS011;2397;53.576;9.746;2022-11-20T08:53:02;4.60;;;4.13;;
4766;SDS011;2397;53.576;9.746;2022-11-20T08:55:31;4.93;;;4.10;;
4766;SDS011;2397;53.576;9.746;2022-11-20T08:57:58;4.20;;;3.90;;
4766;SDS011;2397;53.576;9.746;2022-11-20T09:00:24;4.80;;;4.03;;
4766;SDS011;2397;53.576;9.746;2022-11-20T09:02:51;4.87;;;4.47;;
4766;SDS011;2397;53.576;9.746;2022-11-20T09:05:18;5.73;;;5.13;;
4766;SDS011;2397;53.576;9.746;2022-11-20T09:07:44;4.70;;;4.27;;
4766;SDS011;2397;53.576;9.746;2022-11-20T09:10:11;4.90;;;4.40;;
4766;SDS011;2397;53.576;9.746;2022-11-20T09:12:53;8.43;;;7.13;;
4766;SDS011;2397;53.576;9.746;2022-11-20T09:15:21;4.50;;;4.10;;
4766;SDS011;2397;53.576;9.746;2022-11-20T09:17:51;4.80;;;4.03;;
4766;SDS011;2397;53.576;9.746;2022-11-20T09:20:21;4.63;;;4.20;;
4766;SDS011;2397;53.576;9.746;2022-11-20T09:22:48;5.20;;;4.10;;
4766;SDS011;2397;53.576;9.746;2022-11-20T09:25:15;4.53;;;4.13;;
4766;SDS011;2397;53.576;9.746;2022-11-20T09:27:41;4.07;;;3.67;;
4766;SDS011;2397;53.576;9.746;2022-11-20T09:30:10;4.67;;;4.27;;
4766;SDS011;2397;53.576;9.746;2022-11-20T09:32:40;4.80;;;3.63;;
4766;SDS011;2397;53.576;9.746;2022-11-20T09:35:07;6.53;;;5.37;;
4766;SDS011;2397;53.576;9.746;2022-11-20T09:37:34;5.03;;;4.53;;
4766;SDS011;2397;53.576;9.746;2022-11-20T09:40:01;4.93;;;4.40;;
4766;SDS011;2397;53.576;9.746;2022-11-20T09:51:05;9.30;;;6.53;;
4766;SDS011;2397;53.576;9.746;2022-11-20T09:57:00;5.57;;;5.07;;
4766;SDS011;2397;53.576;9.746;2022-11-20T09:59:34;5.97;;;4.47;;
4766;SDS011;2397;53.576;9.746;2022-11-20T10:02:15;7.83;;;5.30;;
4766;SDS011;2397;53.576;9.746;2022-11-20T10:04:53;10.27;;;7.20;;
4766;SDS011;2397;53.576;9.746;2022-11-20T10:07:30;4.63;;;4.17;;
4766;SDS011;2397;53.576;9.746;2022-11-20T10:10:21;3.60;;;3.30;;
4766;SDS011;2397;53.576;9.746;2022-11-20T10:13:16;3.13;;;2.93;;
4766;SDS011;2397;53.576;9.746;2022-11-20T10:27:21;5.67;;;5.17;;
4766;SDS011;2397;53.576;9.746;2022-11-20T10:30:13;5.37;;;4.10;;
4766;SDS011;2397;53.576;9.746;2022-11-20T10:32:48;3.80;;;3.50;;
4766;SDS011;2397;53.576;9.746;2022-11-20T10:35:22;4.70;;;4.30;;
4766;SDS011;2397;53.576;9.746;2022-11-20T10:38:00;6.47;;;3.77;;
4766;SDS011;2397;53.576;9.746;2022-11-20T10:40:35;3.60;;;3.30;;
4766;SDS011;2397;53.576;9.746;2022-11-20T10:43:13;3.40;;;3.13;;
4766;SDS011;2397;53.576;9.746;2022-11-20T10:48:24;4.00;;;3.63;;
4766;SDS011;2397;53.576;9.746;2022-11-20T10:53:51;3.87;;;3.57;;
4766;SDS011;2397;53.576;9.746;2022-11-20T10:56:34;3.23;;;3.00;;
4766;SDS011;2397;53.576;9.746;2022-11-20T11:02:18;3.83;;;3.53;;
4766;SDS011;2397;53.576;9.746;2022-11-20T11:04:47;4.47;;;4.07;;
4766;SDS011;2397;53.576;9.746;2022-11-20T11:07:20;3.93;;;3.57;;
4766;SDS011;2397;53.576;9.746;2022-11-20T11:09:54;4.23;;;3.83;;
4766;SDS011;2397;53.576;9.746;2022-11-20T11:12:23;3.57;;;3.27;;
4766;SDS011;2397;53.576;9.746;2022-11-20T11:14:53;3.80;;;3.50;;
4766;SDS011;2397;53.576;9.746;2022-11-20T11:17:22;4.27;;;3.87;;
4766;SDS011;2397;53.576;9.746;2022-11-20T11:19:56;4.17;;;3.77;;
4766;SDS011;2397;53.576;9.746;2022-11-20T11:22:30;3.80;;;3.50;;
4766;SDS011;2397;53.576;9.746;2022-11-20T11:24:58;3.60;;;3.30;;
4766;SDS011;2397;53.576;9.746;2022-11-20T11:27:25;3.87;;;3.47;;
4766;SDS011;2397;53.576;9.746;2022-11-20T11:30:01;3.60;;;3.30;;
4766;SDS011;2397;53.576;9.746;2022-11-20T11:32:29;3.73;;;3.40;;
4766;SDS011;2397;53.576;9.746;2022-11-20T11:35:00;4.17;;;3.87;;
4766;SDS011;2397;53.576;9.746;2022-11-20T11:37:28;3.30;;;3.00;;
4766;SDS011;2397;53.576;9.746;2022-11-20T11:40:00;3.70;;;3.40;;
4766;SDS011;2397;53.576;9.746;2022-11-20T11:42:50;4.77;;;3.77;;
4766;SDS011;2397;53.576;9.746;2022-11-20T11:45:20;5.80;;;3.60;;
4766;SDS011;2397;53.576;9.746;2022-11-20T11:47:47;3.90;;;3.60;;
4766;SDS011;2397;53.576;9.746;2022-11-20T11:50:16;4.03;;;3.73;;
4766;SDS011;2397;53.576;9.746;2022-11-20T11:55:45;4.63;;;4.33;;
4766;SDS011;2397;53.576;9.746;2022-11-20T11:58:28;4.77;;;4.37;;
4766;SDS011;2397;53.576;9.746;2022-11-20T12:01:26;3.50;;;3.20;;
4766;SDS011;2397;53.576;9.746;2022-11-20T12:04:21;3.70;;;3.40;;
4766;SDS011;2397;53.576;9.746;2022-11-20T12:07:16;3.33;;;3.03;;
4766;SDS011;2397;53.576;9.746;2022-11-20T12:10:12;3.20;;;3.00;;
4766;SDS011;2397;53.576;9.746;2022-11-20T12:12:44;3.93;;;3.63;;
4766;SDS011;2397;53.576;9.746;2022-11-20T12:15:15;3.00;;;2.80;;
4766;SDS011;2397;53.576;9.746;2022-11-20T12:17:57;3.90;;;3.60;;
4766;SDS011;2397;53.576;9.746;2022-11-20T12:20:26;3.03;;;2.80;;
4766;SDS011;2397;53.576;9.746;2022-11-20T12:23:02;3.90;;;3.23;;
4766;SDS011;2397;53.576;9.746;2022-11-20T12:25:36;3.40;;;3.10;;
4766;SDS011;2397;53.576;9.746;2022-11-20T12:31:18;3.60;;;3.30;;
4766;SDS011;2397;53.576;9.746;2022-11-20T12:34:03;4.40;;;3.40;;
4766;SDS011;2397;53.576;9.746;2022-11-20T12:36:40;3.63;;;3.33;;
4766;SDS011;2397;53.576;9.746;2022-11-20T12:39:29;2.90;;;2.70;;
4766;SDS011;2397;53.576;9.746;2022-11-20T12:45:20;3.23;;;2.93;;
4766;SDS011;2397;53.576;9.746;2022-11-20T12:48:25;3.27;;;3.07;;
4766;SDS011;2397;53.576;9.746;2022-11-20T13:05:04;3.90;;;3.30;;
4766;SDS011;2397;53.576;9.746;2022-11-20T13:07:56;3.40;;;3.10;;
4766;SDS011;2397;53.576;9.746;2022-11-20T13:13:23;2.87;;;2.67;;
4766;SDS011;2397;53.576;9.746;2022-11-20T13:15:59;2.80;;;2.60;;
4766;SDS011;2397;53.576;9.746;2022-11-20T13:18:34;3.63;;;3.33;;
4766;SDS011;2397;53.576;9.746;2022-11-20T13:23:45;3.67;;;3.30;;
4766;SDS011;2397;53.576;9.746;2022-11-20T13:26:30;3.80;;;3.47;;
4766;SDS011;2397;53.576;9.746;2022-11-20T13:31:46;3.47;;;3.27;;
4766;SDS011;2397;53.576;9.746;2022-11-20T13:34:24;3.90;;;3.10;;
4766;SDS011;2397;53.576;9.746;2022-11-20T13:36:56;3.20;;;3.00;;
4766;SDS011;2397;53.576;9.746;2022-11-20T13:39:27;2.97;;;2.77;;
4766;SDS011;2397;53.576;9.746;2022-11-20T13:41:59;3.47;;;3.17;;
4766;SDS011;2397;53.576;9.746;2022-11-20T13:44:46;3.10;;;2.90;;
4766;SDS011;2397;53.576;9.746;2022-11-20T13:47:20;4.20;;;3.20;;
4766;SDS011;2397;53.576;9.746;2022-11-20T13:49:51;3.10;;;2.90;;
4766;SDS011;2397;53.576;9.746;2022-11-20T13:55:38;3.30;;;3.00;;
4766;SDS011;2397;53.576;9.746;2022-11-20T14:01:08;2.77;;;2.63;;
4766;SDS011;2397;53.576;9.746;2022-11-20T14:03:36;2.70;;;2.50;;
4766;SDS011;2397;53.576;9.746;2022-11-20T14:06:31;3.27;;;2.97;;
4766;SDS011;2397;53.576;9.746;2022-11-20T14:09:00;2.83;;;2.63;;
4766;SDS011;2397;53.576;9.746;2022-11-20T14:11:27;4.00;;;2.83;;
4766;SDS011;2397;53.576;9.746;2022-11-20T14:14:02;3.10;;;2.90;;
4766;SDS011;2397;53.576;9.746;2022-11-20T14:16:31;3.20;;;2.90;;
4766;SDS011;2397;53.576;9.746;2022-11-20T14:19:17;3.07;;;2.80;;
4766;SDS011;2397;53.576;9.746;2022-11-20T14:21:46;3.23;;;2.93;;
4766;SDS011;2397;53.576;9.746;2022-11-20T14:24:13;3.30;;;3.10;;
4766;SDS011;2397;53.576;9.746;2022-11-20T14:26:45;2.90;;;2.70;;
4766;SDS011;2397;53.576;9.746;2022-11-20T14:29:16;2.90;;;2.70;;
4766;SDS011;2397;53.576;9.746;2022-11-20T14:31:44;4.27;;;3.13;;
4766;SDS011;2397;53.576;9.746;2022-11-20T14:34:20;3.40;;;3.10;;
4766;SDS011;2397;53.576;9.746;2022-11-20T14:36:53;3.83;;;3.53;;
4766;SDS011;2397;53.576;9.746;2022-11-20T14:39:25;4.33;;;3.60;;
4766;SDS011;2397;53.576;9.746;2022-11-20T14:41:56;4.00;;;3.70;;
4766;SDS011;2397;53.576;9.746;2022-11-20T14:44:25;3.80;;;3.50;;
4766;SDS011;2397;53.576;9.746;2022-11-20T14:46:59;3.57;;;3.37;;
4766;SDS011;2397;53.576;9.746;2022-11-20T14:49:27;3.30;;;3.10;;
4766;SDS011;2397;53.576;9.746;2022-11-20T14:52:00;3.67;;;3.20;;
4766;SDS011;2397;53.576;9.746;2022-11-20T14:54:27;3.90;;;3.60;;
4766;SDS011;2397;53.576;9.746;2022-11-20T14:56:55;6.13;;;5.63;;
4766;SDS011;2397;53.576;9.746;2022-11-20T14:59:24;4.50;;;4.10;;
4766;SDS011;2397;53.576;9.746;2022-11-20T15:01:56;3.73;;;2.87;;
4766;SDS011;2397;53.576;9.746;2022-11-20T15:04:23;3.70;;;3.40;;
4766;SDS011;2397;53.576;9.746;2022-11-20T15:06:53;3.50;;;3.20;;
4766;SDS011;2397;53.576;9.746;2022-11-20T15:09:20;3.17;;;2.90;;
4766;SDS011;2397;53.576;9.746;2022-11-20T15:12:00;3.07;;;2.87;;
4766;SDS011;2397;53.576;9.746;2022-11-20T15:14:28;3.63;;;2.90;;
4766;SDS011;2397;53.576;9.746;2022-11-20T15:16:58;3.87;;;3.40;;
4766;SDS011;2397;53.576;9.746;2022-11-20T15:19:25;10.90;;;7.60;;
4766;SDS011;2397;53.576;9.746;2022-11-20T15:21:53;12.33;;;9.23;;
4766;SDS011;2397;53.576;9.746;2022-11-20T15:24:19;5.53;;;5.00;;
4766;SDS011;2397;53.576;9.746;2022-11-20T15:26:47;6.13;;;5.50;;
4766;SDS011;2397;53.576;9.746;2022-11-20T15:29:14;5.97;;;5.20;;
4766;SDS011;2397;53.576;9.746;2022-11-20T15:31:45;7.00;;;5.00;;
4766;SDS011;2397;53.576;9.746;2022-11-20T15:34:12;7.33;;;5.83;;
4766;SDS011;2397;53.576;9.746;2022-11-20T15:36:42;5.37;;;4.87;;
4766;SDS011;2397;53.576;9.746;2022-11-20T15:39:09;4.70;;;3.70;;
4766;SDS011;2397;53.576;9.746;2022-11-20T15:41:38;4.00;;;3.70;;
4766;SDS011;2397;53.576;9.746;2022-11-20T15:44:04;4.40;;;3.83;;
4766;SDS011;2397;53.576;9.746;2022-11-20T15:46:31;3.77;;;3.47;;
4766;SDS011;2397;53.576;9.746;2022-11-20T15:49:04;3.47;;;3.17;;
4766;SDS011;2397;53.576;9.746;2022-11-20T15:51:32;3.57;;;3.27;;
4766;SDS011;2397;53.576;9.746;2022-11-20T15:54:00;7.10;;;3.97;;
4766;SDS011;2397;53.576;9.746;2022-11-20T15:56:29;4.37;;;4.00;;
4766;SDS011;2397;53.576;9.746;2022-11-20T15:58:55;4.63;;;4.23;;
4766;SDS011;2397;53.576;9.746;2022-11-20T16:01:22;4.40;;;4.00;;
4766;SDS011;2397;53.576;9.746;2022-11-20T16:03:48;4.70;;;4.40;;
4766;SDS011;2397;53.576;9.746;2022-11-20T16:06:15;10.53;;;4.30;;
4766;SDS011;2397;53.576;9.746;2022-11-20T16:08:42;5.60;;;5.10;;
4766;SDS011;2397;53.576;9.746;2022-11-20T16:11:12;5.67;;;5.10;;
4766;SDS011;2397;53.576;9.746;2022-11-20T16:13:40;6.63;;;5.23;;
4766;SDS011;2397;53.576;9.746;2022-11-20T16:16:27;8.60;;;6.07;;
4766;SDS011;2397;53.576;9.746;2022-11-20T16:18:56;7.30;;;6.00;;
4766;SDS011;2397;53.576;9.746;2022-11-20T16:21:23;7.50;;;5.67;;
4766;SDS011;2397;53.576;9.746;2022-11-20T16:23:59;6.27;;;5.50;;
4766;SDS011;2397;53.576;9.746;2022-11-20T16:26:27;8.07;;;5.77;;
4766;SDS011;2397;53.576;9.746;2022-11-20T16:28:54;6.13;;;5.60;;
4766;SDS011;2397;53.576;9.746;2022-11-20T16:31:21;6.30;;;5.70;;
4766;SDS011;2397;53.576;9.746;2022-11-20T16:33:50;6.30;;;5.53;;
4766;SDS011;2397;53.576;9.746;2022-11-20T16:36:18;6.43;;;5.83;;
4766;SDS011;2397;53.576;9.746;2022-11-20T16:38:46;7.67;;;6.40;;
4766;SDS011;2397;53.576;9.746;2022-11-20T16:41:18;7.13;;;6.07;;
4766;SDS011;2397;53.576;9.746;2022-11-20T16:43:51;6.53;;;5.93;;
4766;SDS011;2397;53.576;9.746;2022-11-20T16:46:21;9.13;;;6.60;;
4766;SDS011;2397;53.576;9.746;2022-11-20T16:49:01;9.13;;;6.57;;